Terminal Aerodrome Forecast
Issued by NWS

Home | Current Version | Previous Version | Text Only | Print | Product List | Glossary On
Versions: 1 2 3 4 5 6 7 8 9 10 11 12 13 14 15 16
237
FTUS42 KTAE 231724
TAFDHN
TAF
KDHN 231724Z 2318/2418 28012KT P6SM SCT022
     FM231900 30010KT P6SM FEW030
     FM232300 30005KT P6SM FEW250
     FM241500 31010G15KT P6SM SKC=

USA.gov is the U.S. government's official web portal to all federal, state and local government web resources and services.